sensor_id;sensor_type;location;lat;lon;timestamp;pressure;altitude;pressure_sealevel;temperature;humidity
64668;BME280;51077;42.716;23.344;2022-09-09T00:04:00;95577.78;;;20.92;51.46
64668;BME280;51077;42.716;23.344;2022-09-09T00:06:31;95573.53;;;20.91;51.18
64668;BME280;51077;42.716;23.344;2022-09-09T00:09:13;95573.34;;;20.89;51.34
64668;BME280;51077;42.716;23.344;2022-09-09T00:11:52;95564.63;;;20.85;51.37
64668;BME280;51077;42.716;23.344;2022-09-09T00:14:42;95567.28;;;20.83;51.36
64668;BME280;51077;42.716;23.344;2022-09-09T00:17:46;95579.03;;;20.81;51.53
64668;BME280;51077;42.716;23.344;2022-09-09T00:20:22;95569.00;;;20.78;51.86
64668;BME280;51077;42.716;23.344;2022-09-09T00:23:05;95565.28;;;20.76;51.91
64668;BME280;51077;42.716;23.344;2022-09-09T00:25:49;95556.59;;;20.72;52.17
64668;BME280;51077;42.716;23.344;2022-09-09T00:28:23;95556.44;;;20.70;51.97
64668;BME280;51077;42.716;23.344;2022-09-09T00:30:50;95541.44;;;20.65;52.06
64668;BME280;51077;42.716;23.344;2022-09-09T00:33:18;95545.34;;;20.62;52.42
64668;BME280;51077;42.716;23.344;2022-09-09T00:35:49;95540.19;;;20.58;52.42
64668;BME280;51077;42.716;23.344;2022-09-09T00:40:56;95543.06;;;20.51;52.62
64668;BME280;51077;42.716;23.344;2022-09-09T00:43:32;95537.13;;;20.47;52.64
64668;BME280;51077;42.716;23.344;2022-09-09T00:46:16;95534.00;;;20.43;52.90
64668;BME280;51077;42.716;23.344;2022-09-09T00:49:04;95531.63;;;20.39;52.94
64668;BME280;51077;42.716;23.344;2022-09-09T00:56:37;95537.50;;;20.26;53.59
64668;BME280;51077;42.716;23.344;2022-09-09T01:01:35;95532.72;;;20.19;53.81
64668;BME280;51077;42.716;23.344;2022-09-09T01:04:02;95536.06;;;20.17;53.78
64668;BME280;51077;42.716;23.344;2022-09-09T01:06:34;95532.38;;;20.15;53.89
64668;BME280;51077;42.716;23.344;2022-09-09T01:09:22;95534.25;;;20.12;54.24
64668;BME280;51077;42.716;23.344;2022-09-09T01:12:05;95536.13;;;20.09;54.15
64668;BME280;51077;42.716;23.344;2022-09-09T01:14:47;95533.00;;;20.05;54.24
64668;BME280;51077;42.716;23.344;2022-09-09T01:17:30;95542.50;;;20.02;54.51
64668;BME280;51077;42.716;23.344;2022-09-09T01:20:15;95544.19;;;19.98;54.62
64668;BME280;51077;42.716;23.344;2022-09-09T01:26:10;95538.53;;;19.88;55.09
64668;BME280;51077;42.716;23.344;2022-09-09T01:28:38;95538.16;;;19.84;54.98
64668;BME280;51077;42.716;23.344;2022-09-09T01:31:05;95535.22;;;19.82;55.28
64668;BME280;51077;42.716;23.344;2022-09-09T01:33:31;95538.00;;;19.82;55.53
64668;BME280;51077;42.716;23.344;2022-09-09T01:38:26;95553.06;;;19.79;55.35
64668;BME280;51077;42.716;23.344;2022-09-09T01:40:53;95551.41;;;19.76;55.38
64668;BME280;51077;42.716;23.344;2022-09-09T01:43:20;95559.59;;;19.74;55.72
64668;BME280;51077;42.716;23.344;2022-09-09T01:45:46;95556.63;;;19.72;55.81
64668;BME280;51077;42.716;23.344;2022-09-09T01:48:14;95553.50;;;19.68;55.89
64668;BME280;51077;42.716;23.344;2022-09-09T01:50:39;95554.81;;;19.67;55.88
64668;BME280;51077;42.716;23.344;2022-09-09T01:53:05;95562.25;;;19.64;55.87
64668;BME280;51077;42.716;23.344;2022-09-09T01:55:39;95557.97;;;19.63;56.32
64668;BME280;51077;42.716;23.344;2022-09-09T02:01:29;95557.09;;;19.61;56.41
64668;BME280;51077;42.716;23.344;2022-09-09T02:04:04;95556.13;;;19.58;56.48
64668;BME280;51077;42.716;23.344;2022-09-09T02:06:40;95555.78;;;19.54;56.53
64668;BME280;51077;42.716;23.344;2022-09-09T02:09:07;95556.34;;;19.52;56.54
64668;BME280;51077;42.716;23.344;2022-09-09T02:11:36;95551.34;;;19.51;56.65
64668;BME280;51077;42.716;23.344;2022-09-09T02:14:24;95547.66;;;19.48;56.66
64668;BME280;51077;42.716;23.344;2022-09-09T02:16:54;95546.91;;;19.48;56.81
64668;BME280;51077;42.716;23.344;2022-09-09T02:19:35;95539.69;;;19.45;56.96
64668;BME280;51077;42.716;23.344;2022-09-09T02:22:02;95534.69;;;19.43;56.96
64668;BME280;51077;42.716;23.344;2022-09-09T02:24:35;95535.06;;;19.40;56.87
64668;BME280;51077;42.716;23.344;2022-09-09T02:27:04;95548.06;;;19.37;56.96
64668;BME280;51077;42.716;23.344;2022-09-09T02:29:36;95546.59;;;19.36;57.15
64668;BME280;51077;42.716;23.344;2022-09-09T02:32:06;95541.75;;;19.37;57.24
64668;BME280;51077;42.716;23.344;2022-09-09T02:34:36;95545.69;;;19.33;57.18
64668;BME280;51077;42.716;23.344;2022-09-09T02:37:03;95553.31;;;19.33;57.11
64668;BME280;51077;42.716;23.344;2022-09-09T02:39:31;95545.50;;;19.31;57.14
64668;BME280;51077;42.716;23.344;2022-09-09T02:41:57;95552.38;;;19.30;57.17
64668;BME280;51077;42.716;23.344;2022-09-09T02:44:22;95559.81;;;19.28;57.28
64668;BME280;51077;42.716;23.344;2022-09-09T02:49:24;95565.22;;;19.26;57.51
64668;BME280;51077;42.716;23.344;2022-09-09T02:54:35;95551.50;;;19.20;57.85
64668;BME280;51077;42.716;23.344;2022-09-09T02:57:07;95556.88;;;19.18;57.70
64668;BME280;51077;42.716;23.344;2022-09-09T02:59:34;95556.16;;;19.18;57.68
64668;BME280;51077;42.716;23.344;2022-09-09T03:02:00;95558.00;;;19.15;57.63
64668;BME280;51077;42.716;23.344;2022-09-09T03:04:26;95552.44;;;19.15;57.84
64668;BME280;51077;42.716;23.344;2022-09-09T03:06:51;95564.72;;;19.12;57.91
64668;BME280;51077;42.716;23.344;2022-09-09T03:09:17;95567.28;;;19.10;58.03
64668;BME280;51077;42.716;23.344;2022-09-09T03:11:42;95557.84;;;19.05;58.16
64668;BME280;51077;42.716;23.344;2022-09-09T03:14:08;95561.22;;;19.04;58.45
64668;BME280;51077;42.716;23.344;2022-09-09T03:16:33;95563.78;;;19.02;58.49
64668;BME280;51077;42.716;23.344;2022-09-09T03:19:00;95568.63;;;19.01;58.53
64668;BME280;51077;42.716;23.344;2022-09-09T03:21:26;95567.16;;;19.00;58.57
64668;BME280;51077;42.716;23.344;2022-09-09T03:23:51;95550.47;;;19.00;58.61
64668;BME280;51077;42.716;23.344;2022-09-09T03:26:17;95554.56;;;18.99;58.80
64668;BME280;51077;42.716;23.344;2022-09-09T03:28:42;95557.13;;;19.05;59.13
64668;BME280;51077;42.716;23.344;2022-09-09T03:31:09;95552.66;;;19.02;58.99
64668;BME280;51077;42.716;23.344;2022-09-09T03:33:38;95556.03;;;19.00;59.07
64668;BME280;51077;42.716;23.344;2022-09-09T03:36:05;95555.66;;;18.96;59.13
64668;BME280;51077;42.716;23.344;2022-09-09T03:38:30;95558.09;;;18.92;59.21
64668;BME280;51077;42.716;23.344;2022-09-09T03:40:57;95552.34;;;18.90;59.01
64668;BME280;51077;42.716;23.344;2022-09-09T03:43:26;95551.78;;;18.92;59.17
64668;BME280;51077;42.716;23.344;2022-09-09T03:45:53;95552.34;;;18.90;59.00
64668;BME280;51077;42.716;23.344;2022-09-09T03:48:22;95559.19;;;18.89;59.38
64668;BME280;51077;42.716;23.344;2022-09-09T03:50:50;95569.59;;;18.89;59.17
64668;BME280;51077;42.716;23.344;2022-09-09T03:53:19;95568.13;;;18.88;59.04
64668;BME280;51077;42.716;23.344;2022-09-09T03:55:45;95567.94;;;18.86;58.99
64668;BME280;51077;42.716;23.344;2022-09-09T03:58:13;95569.41;;;18.87;59.04
64668;BME280;51077;42.716;23.344;2022-09-09T04:00:38;95563.84;;;18.87;58.72
64668;BME280;51077;42.716;23.344;2022-09-09T04:03:11;95563.66;;;18.84;59.05
64668;BME280;51077;42.716;23.344;2022-09-09T04:05:37;95575.34;;;18.83;59.01
64668;BME280;51077;42.716;23.344;2022-09-09T04:08:06;95573.16;;;18.81;59.08
64668;BME280;51077;42.716;23.344;2022-09-09T04:10:31;95568.31;;;18.82;59.00
64668;BME280;51077;42.716;23.344;2022-09-09T04:12:57;95572.41;;;18.81;59.07
64668;BME280;51077;42.716;23.344;2022-09-09T04:15:22;95576.66;;;18.82;58.95
64668;BME280;51077;42.716;23.344;2022-09-09T04:17:47;95564.22;;;18.83;59.15
64668;BME280;51077;42.716;23.344;2022-09-09T04:20:13;95562.38;;;18.86;59.06
64668;BME280;51077;42.716;23.344;2022-09-09T04:22:38;95567.53;;;18.89;58.81
64668;BME280;51077;42.716;23.344;2022-09-09T04:25:05;95560.69;;;18.90;58.71
64668;BME280;51077;42.716;23.344;2022-09-09T04:27:31;95565.13;;;18.93;58.72
64668;BME280;51077;42.716;23.344;2022-09-09T04:29:57;95570.50;;;18.99;58.49
64668;BME280;51077;42.716;23.344;2022-09-09T04:32:23;95574.03;;;18.99;58.58
64668;BME280;51077;42.716;23.344;2022-09-09T04:34:48;95573.66;;;19.03;58.53
64668;BME280;51077;42.716;23.344;2022-09-09T04:37:14;95559.31;;;19.06;58.39
64668;BME280;51077;42.716;23.344;2022-09-09T04:39:40;95568.03;;;19.11;58.25
64668;BME280;51077;42.716;23.344;2022-09-09T04:42:05;95570.22;;;19.20;58.00
64668;BME280;51077;42.716;23.344;2022-09-09T04:44:30;95572.97;;;19.27;57.61
64668;BME280;51077;42.716;23.344;2022-09-09T04:46:56;95575.34;;;19.39;57.42
64668;BME280;51077;42.716;23.344;2022-09-09T04:49:21;95570.31;;;19.45;57.19
64668;BME280;51077;42.716;23.344;2022-09-09T04:51:49;95571.03;;;19.45;57.10
64668;BME280;51077;42.716;23.344;2022-09-09T04:54:14;95564.75;;;19.45;56.99
64668;BME280;51077;42.716;23.344;2022-09-09T04:56:40;95565.09;;;19.49;57.05
64668;BME280;51077;42.716;23.344;2022-09-09T04:59:07;95563.94;;;19.59;56.76
64668;BME280;51077;42.716;23.344;2022-09-09T05:01:32;95561.31;;;19.69;56.54
64668;BME280;51077;42.716;23.344;2022-09-09T05:03:59;95568.31;;;19.78;56.42
64668;BME280;51077;42.716;23.344;2022-09-09T05:06:24;95574.91;;;19.90;56.21
64668;BME280;51077;42.716;23.344;2022-09-09T05:08:50;95557.00;;;20.01;55.99
64668;BME280;51077;42.716;23.344;2022-09-09T05:13:49;95552.00;;;20.24;55.57
64668;BME280;51077;42.716;23.344;2022-09-09T05:16:16;95558.22;;;20.32;55.15
64668;BME280;51077;42.716;23.344;2022-09-09T05:18:43;95563.59;;;20.38;55.15
64668;BME280;51077;42.716;23.344;2022-09-09T05:21:09;95572.44;;;20.44;54.97
64668;BME280;51077;42.716;23.344;2022-09-09T05:23:35;95565.91;;;20.49;54.73
64668;BME280;51077;42.716;23.344;2022-09-09T05:26:01;95552.66;;;20.57;54.57
64668;BME280;51077;42.716;23.344;2022-09-09T05:28:28;95559.63;;;20.66;54.29
64668;BME280;51077;42.716;23.344;2022-09-09T05:31:02;95557.09;;;20.78;53.99
64668;BME280;51077;42.716;23.344;2022-09-09T05:33:33;95555.31;;;20.90;53.52
64668;BME280;51077;42.716;23.344;2022-09-09T05:36:01;95552.59;;;21.00;53.02
64668;BME280;51077;42.716;23.344;2022-09-09T05:38:28;95559.91;;;21.13;52.54
64668;BME280;51077;42.716;23.344;2022-09-09T05:40:54;95553.97;;;21.26;52.49
64668;BME280;51077;42.716;23.344;2022-09-09T05:43:22;95563.50;;;21.40;51.83
64668;BME280;51077;42.716;23.344;2022-09-09T05:45:48;95556.41;;;21.56;51.54
64668;BME280;51077;42.716;23.344;2022-09-09T05:48:28;95556.91;;;21.72;51.04
64668;BME280;51077;42.716;23.344;2022-09-09T05:50:54;95568.63;;;21.88;50.69
64668;BME280;51077;42.716;23.344;2022-09-09T05:53:19;95568.41;;;22.03;50.35
64668;BME280;51077;42.716;23.344;2022-09-09T05:55:45;95562.75;;;22.21;49.86
64668;BME280;51077;42.716;23.344;2022-09-09T05:58:10;95558.53;;;22.39;49.50
64668;BME280;51077;42.716;23.344;2022-09-09T06:00:36;95559.75;;;22.55;49.03
64668;BME280;51077;42.716;23.344;2022-09-09T06:03:03;95563.75;;;22.72;48.53
64668;BME280;51077;42.716;23.344;2022-09-09T06:05:29;95572.78;;;22.90;48.02
64668;BME280;51077;42.716;23.344;2022-09-09T06:07:54;95571.78;;;23.04;47.80
64668;BME280;51077;42.716;23.344;2022-09-09T06:10:21;95572.97;;;23.21;47.25
64668;BME280;51077;42.716;23.344;2022-09-09T06:12:46;95572.66;;;23.36;47.04
64668;BME280;51077;42.716;23.344;2022-09-09T06:15:12;95567.91;;;23.48;46.60
64668;BME280;51077;42.716;23.344;2022-09-09T06:17:37;95561.69;;;23.59;46.10
64668;BME280;51077;42.716;23.344;2022-09-09T06:20:04;95577.81;;;23.69;45.99
64668;BME280;51077;42.716;23.344;2022-09-09T06:22:30;95574.38;;;23.80;45.25
64668;BME280;51077;42.716;23.344;2022-09-09T06:24:56;95573.03;;;23.91;44.71
64668;BME280;51077;42.716;23.344;2022-09-09T06:27:22;95581.25;;;23.98;44.46
64668;BME280;51077;42.716;23.344;2022-09-09T06:29:47;95578.72;;;24.12;44.43
64668;BME280;51077;42.716;23.344;2022-09-09T06:32:13;95575.81;;;24.31;44.20
64668;BME280;51077;42.716;23.344;2022-09-09T06:34:38;95572.53;;;24.45;43.68
64668;BME280;51077;42.716;23.344;2022-09-09T06:37:05;95569.47;;;24.62;43.31
64668;BME280;51077;42.716;23.344;2022-09-09T06:39:31;95562.88;;;24.79;42.95
64668;BME280;51077;42.716;23.344;2022-09-09T06:41:56;95558.19;;;24.93;42.42
64668;BME280;51077;42.716;23.344;2022-09-09T06:44:24;95556.78;;;25.04;41.85
64668;BME280;51077;42.716;23.344;2022-09-09T06:46:52;95555.53;;;25.17;41.87
64668;BME280;51077;42.716;23.344;2022-09-09T06:49:17;95551.56;;;25.31;41.53
64668;BME280;51077;42.716;23.344;2022-09-09T06:51:43;95559.56;;;25.47;41.23
64668;BME280;51077;42.716;23.344;2022-09-09T06:54:11;95571.94;;;25.65;40.68
64668;BME280;51077;42.716;23.344;2022-09-09T06:56:38;95576.66;;;25.84;40.89
64668;BME280;51077;42.716;23.344;2022-09-09T06:59:07;95571.91;;;25.98;40.28
64668;BME280;51077;42.716;23.344;2022-09-09T07:01:39;95572.78;;;26.13;39.80
64668;BME280;51077;42.716;23.344;2022-09-09T07:04:06;95575.97;;;26.19;39.49
64668;BME280;51077;42.716;23.344;2022-09-09T07:06:45;95571.47;;;26.25;39.27
64668;BME280;51077;42.716;23.344;2022-09-09T07:09:13;95577.31;;;26.29;39.38
64668;BME280;51077;42.716;23.344;2022-09-09T07:14:07;95567.16;;;26.36;39.05
64668;BME280;51077;42.716;23.344;2022-09-09T07:16:33;95570.22;;;26.40;38.62
64668;BME280;51077;42.716;23.344;2022-09-09T07:19:03;95568.41;;;26.45;38.16
64668;BME280;51077;42.716;23.344;2022-09-09T07:21:30;95569.53;;;26.51;38.21
64668;BME280;51077;42.716;23.344;2022-09-09T07:23:56;95570.47;;;26.68;38.21
64668;BME280;51077;42.716;23.344;2022-09-09T07:26:25;95568.50;;;26.82;37.87
64668;BME280;51077;42.716;23.344;2022-09-09T07:28:51;95566.38;;;26.94;37.37
64668;BME280;51077;42.716;23.344;2022-09-09T07:31:30;95558.38;;;27.14;37.04
64668;BME280;51077;42.716;23.344;2022-09-09T07:33:56;95565.31;;;27.25;36.76
64668;BME280;51077;42.716;23.344;2022-09-09T07:36:24;95548.38;;;27.37;36.49
64668;BME280;51077;42.716;23.344;2022-09-09T07:38:56;95552.50;;;27.47;35.94
64668;BME280;51077;42.716;23.344;2022-09-09T07:41:23;95547.00;;;27.63;35.86
64668;BME280;51077;42.716;23.344;2022-09-09T07:43:50;95553.81;;;27.84;35.58
64668;BME280;51077;42.716;23.344;2022-09-09T07:46:18;95559.06;;;28.03;35.41
64668;BME280;51077;42.716;23.344;2022-09-09T07:48:49;95567.25;;;28.24;35.12
64668;BME280;51077;42.716;23.344;2022-09-09T07:51:25;95564.28;;;28.48;34.69
64668;BME280;51077;42.716;23.344;2022-09-09T07:53:56;95569.41;;;28.79;33.96
64668;BME280;51077;42.716;23.344;2022-09-09T07:56:26;95562.25;;;29.05;33.69
64668;BME280;51077;42.716;23.344;2022-09-09T07:58:54;95565.91;;;29.22;33.45
64668;BME280;51077;42.716;23.344;2022-09-09T08:03:58;95549.56;;;29.50;32.68
64668;BME280;51077;42.716;23.344;2022-09-09T08:06:25;95550.72;;;29.59;32.54
64668;BME280;51077;42.716;23.344;2022-09-09T08:08:52;95558.69;;;29.78;32.36
64668;BME280;51077;42.716;23.344;2022-09-09T08:11:18;95550.69;;;29.88;32.38
64668;BME280;51077;42.716;23.344;2022-09-09T08:13:44;95558.16;;;29.97;32.08
64668;BME280;51077;42.716;23.344;2022-09-09T08:16:11;95555.06;;;30.07;31.81
64668;BME280;51077;42.716;23.344;2022-09-09T08:18:37;95551.38;;;30.18;31.73
64668;BME280;51077;42.716;23.344;2022-09-09T08:23:32;95548.03;;;30.55;31.56
64668;BME280;51077;42.716;23.344;2022-09-09T08:26:06;95551.06;;;30.75;31.05
64668;BME280;51077;42.716;23.344;2022-09-09T08:28:34;95554.84;;;30.82;30.81
64668;BME280;51077;42.716;23.344;2022-09-09T08:31:38;95552.16;;;31.02;30.94
64668;BME280;51077;42.716;23.344;2022-09-09T08:34:05;95549.34;;;31.20;30.50
64668;BME280;51077;42.716;23.344;2022-09-09T08:36:36;95545.91;;;31.39;30.64
64668;BME280;51077;42.716;23.344;2022-09-09T08:39:06;95545.59;;;31.49;30.42
64668;BME280;51077;42.716;23.344;2022-09-09T08:49:32;95529.38;;;31.51;30.05
64668;BME280;51077;42.716;23.344;2022-09-09T08:52:00;95531.63;;;31.55;29.95
64668;BME280;51077;42.716;23.344;2022-09-09T08:54:30;95525.63;;;31.65;30.51
64668;BME280;51077;42.716;23.344;2022-09-09T08:56:58;95531.22;;;31.81;30.44
64668;BME280;51077;42.716;23.344;2022-09-09T08:59:23;95520.72;;;32.03;30.09
64668;BME280;51077;42.716;23.344;2022-09-09T09:02:00;95534.13;;;32.20;29.79
64668;BME280;51077;42.716;23.344;2022-09-09T09:05:05;95523.81;;;32.29;29.85
64668;BME280;51077;42.716;23.344;2022-09-09T09:12:56;95524.63;;;32.51;29.12
64668;BME280;51077;42.716;23.344;2022-09-09T09:15:31;95521.19;;;32.75;29.01
64668;BME280;51077;42.716;23.344;2022-09-09T09:18:03;95529.34;;;33.05;29.01
64668;BME280;51077;42.716;23.344;2022-09-09T09:21:05;95527.94;;;33.06;28.78
64668;BME280;51077;42.716;23.344;2022-09-09T09:23:54;95526.28;;;32.98;28.73
64668;BME280;51077;42.716;23.344;2022-09-09T09:26:26;95519.91;;;32.58;29.21
64668;BME280;51077;42.716;23.344;2022-09-09T09:28:56;95514.19;;;32.18;29.96
64668;BME280;51077;42.716;23.344;2022-09-09T09:31:23;95519.63;;;31.92;30.28
64668;BME280;51077;42.716;23.344;2022-09-09T09:33:56;95524.59;;;31.74;30.57
64668;BME280;51077;42.716;23.344;2022-09-09T09:36:43;95519.25;;;31.46;31.14
64668;BME280;51077;42.716;23.344;2022-09-09T09:39:22;95517.28;;;31.33;31.38
64668;BME280;51077;42.716;23.344;2022-09-09T09:41:48;95513.47;;;31.26;31.42
64668;BME280;51077;42.716;23.344;2022-09-09T09:44:28;95510.53;;;31.24;31.07
64668;BME280;51077;42.716;23.344;2022-09-09T09:49:30;95506.31;;;31.25;31.74
64668;BME280;51077;42.716;23.344;2022-09-09T09:52:01;95506.75;;;31.18;31.53
64668;BME280;51077;42.716;23.344;2022-09-09T09:54:33;95500.19;;;31.13;31.99
64668;BME280;51077;42.716;23.344;2022-09-09T09:57:14;95493.34;;;31.02;31.94
64668;BME280;51077;42.716;23.344;2022-09-09T09:59:41;95499.19;;;30.89;31.89
64668;BME280;51077;42.716;23.344;2022-09-09T10:02:31;95493.72;;;30.77;31.93
64668;BME280;51077;42.716;23.344;2022-09-09T10:05:12;95492.28;;;30.76;32.31
64668;BME280;51077;42.716;23.344;2022-09-09T10:07:38;95494.28;;;30.73;32.31
64668;BME280;51077;42.716;23.344;2022-09-09T10:10:05;95493.28;;;30.67;32.24
64668;BME280;51077;42.716;23.344;2022-09-09T10:26:02;95505.03;;;29.80;34.23
64668;BME280;51077;42.716;23.344;2022-09-09T10:36:22;95506.38;;;29.34;35.18
64668;BME280;51077;42.716;23.344;2022-09-09T10:53:05;95512.56;;;28.87;35.85
64668;BME280;51077;42.716;23.344;2022-09-09T10:55:45;95515.19;;;28.83;36.11
64668;BME280;51077;42.716;23.344;2022-09-09T10:58:34;95507.97;;;28.79;36.27
64668;BME280;51077;42.716;23.344;2022-09-09T11:01:12;95509.13;;;28.74;36.46
64668;BME280;51077;42.716;23.344;2022-09-09T11:03:42;95510.91;;;28.68;36.64
64668;BME280;51077;42.716;23.344;2022-09-09T11:06:19;95506.41;;;28.63;36.72
64668;BME280;51077;42.716;23.344;2022-09-09T11:08:46;95501.94;;;28.58;36.67
64668;BME280;51077;42.716;23.344;2022-09-09T11:11:17;95503.19;;;28.54;36.84
64668;BME280;51077;42.716;23.344;2022-09-09T11:13:53;95506.44;;;28.49;37.20
64668;BME280;51077;42.716;23.344;2022-09-09T11:16:41;95502.56;;;28.42;37.34
64668;BME280;51077;42.716;23.344;2022-09-09T11:19:17;95497.56;;;28.41;37.34
64668;BME280;51077;42.716;23.344;2022-09-09T11:21:50;95485.94;;;28.35;37.42
64668;BME280;51077;42.716;23.344;2022-09-09T11:27:27;95483.53;;;28.43;37.29
64668;BME280;51077;42.716;23.344;2022-09-09T11:30:42;95491.47;;;28.46;37.38
64668;BME280;51077;42.716;23.344;2022-09-09T11:41:01;95447.56;;;28.57;37.67
64668;BME280;51077;42.716;23.344;2022-09-09T11:43:46;95451.09;;;28.58;37.68
64668;BME280;51077;42.716;23.344;2022-09-09T11:46:18;95445.66;;;28.62;37.67
64668;BME280;51077;42.716;23.344;2022-09-09T11:48:57;95436.03;;;28.67;37.72
64668;BME280;51077;42.716;23.344;2022-09-09T11:51:28;95433.47;;;28.73;37.71
64668;BME280;51077;42.716;23.344;2022-09-09T11:54:28;95418.09;;;28.76;37.52
64668;BME280;51077;42.716;23.344;2022-09-09T11:56:54;95411.94;;;28.79;37.54
64668;BME280;51077;42.716;23.344;2022-09-09T11:59:31;95425.91;;;28.91;37.52
64668;BME280;51077;42.716;23.344;2022-09-09T12:01:59;95419.69;;;29.09;37.17
64668;BME280;51077;42.716;23.344;2022-09-09T12:04:38;95430.41;;;29.42;36.69
64668;BME280;51077;42.716;23.344;2022-09-09T12:14:54;95407.66;;;31.40;33.58
64668;BME280;51077;42.716;23.344;2022-09-09T12:17:22;95404.94;;;31.62;33.49
64668;BME280;51077;42.716;23.344;2022-09-09T12:20:03;95401.00;;;31.71;33.67
64668;BME280;51077;42.716;23.344;2022-09-09T12:28:21;95400.03;;;31.44;33.83
64668;BME280;51077;42.716;23.344;2022-09-09T12:30:58;95395.53;;;31.57;33.62
64668;BME280;51077;42.716;23.344;2022-09-09T12:33:37;95395.63;;;31.79;33.49
64668;BME280;51077;42.716;23.344;2022-09-09T12:36:12;95392.16;;;32.00;33.46
64668;BME280;51077;42.716;23.344;2022-09-09T12:38:40;95391.94;;;31.94;33.48
64668;BME280;51077;42.716;23.344;2022-09-09T12:41:15;95388.81;;;31.86;33.02
64668;BME280;51077;42.716;23.344;2022-09-09T12:43:44;95376.91;;;31.72;33.36
64668;BME280;51077;42.716;23.344;2022-09-09T12:46:58;95376.22;;;31.34;34.06
64668;BME280;51077;42.716;23.344;2022-09-09T12:49:04;95379.00;;;30.96;34.67
64668;BME280;51077;42.716;23.344;2022-09-09T12:51:31;95372.28;;;30.87;34.69
64668;BME280;51077;42.716;23.344;2022-09-09T12:54:00;95372.13;;;30.83;34.77
64668;BME280;51077;42.716;23.344;2022-09-09T12:56:29;95374.16;;;30.81;34.83
64668;BME280;51077;42.716;23.344;2022-09-09T12:58:57;95374.22;;;31.00;34.62
64668;BME280;51077;42.716;23.344;2022-09-09T13:01:27;95358.66;;;31.19;34.23
64668;BME280;51077;42.716;23.344;2022-09-09T13:03:54;95362.91;;;31.38;34.19
64668;BME280;51077;42.716;23.344;2022-09-09T13:06:31;95361.84;;;31.47;34.43
64668;BME280;51077;42.716;23.344;2022-09-09T13:08:59;95358.94;;;31.45;34.06
64668;BME280;51077;42.716;23.344;2022-09-09T13:11:35;95361.03;;;31.45;34.64
64668;BME280;51077;42.716;23.344;2022-09-09T13:14:02;95358.72;;;31.39;34.67
64668;BME280;51077;42.716;23.344;2022-09-09T13:16:33;95352.81;;;31.33;34.34
64668;BME280;51077;42.716;23.344;2022-09-09T13:19:02;95356.59;;;31.40;34.43
64668;BME280;51077;42.716;23.344;2022-09-09T13:21:39;95353.09;;;31.41;34.42
64668;BME280;51077;42.716;23.344;2022-09-09T13:24:29;95350.22;;;31.39;34.95
64668;BME280;51077;42.716;23.344;2022-09-09T13:27:18;95335.16;;;31.35;34.81
64668;BME280;51077;42.716;23.344;2022-09-09T13:29:51;95328.50;;;31.28;34.04
64668;BME280;51077;42.716;23.344;2022-09-09T13:32:21;95324.56;;;31.17;34.45
64668;BME280;51077;42.716;23.344;2022-09-09T13:34:51;95330.84;;;31.16;34.62
64668;BME280;51077;42.716;23.344;2022-09-09T13:39:55;95324.00;;;31.03;34.81
64668;BME280;51077;42.716;23.344;2022-09-09T13:42:25;95325.88;;;30.96;35.33
64668;BME280;51077;42.716;23.344;2022-09-09T13:44:51;95312.84;;;30.89;35.56
64668;BME280;51077;42.716;23.344;2022-09-09T13:47:19;95308.31;;;30.82;35.66
64668;BME280;51077;42.716;23.344;2022-09-09T13:49:45;95308.56;;;30.70;35.90
64668;BME280;51077;42.716;23.344;2022-09-09T13:52:13;95319.63;;;30.64;36.22
64668;BME280;51077;42.716;23.344;2022-09-09T13:54:40;95315.28;;;30.61;36.36
64668;BME280;51077;42.716;23.344;2022-09-09T13:57:15;95310.97;;;30.60;36.17
64668;BME280;51077;42.716;23.344;2022-09-09T13:59:40;95309.38;;;30.55;36.32
64668;BME280;51077;42.716;23.344;2022-09-09T14:02:07;95310.81;;;30.56;36.63
64668;BME280;51077;42.716;23.344;2022-09-09T14:04:32;95312.84;;;30.53;36.59
64668;BME280;51077;42.716;23.344;2022-09-09T14:07:00;95307.03;;;30.49;36.45
64668;BME280;51077;42.716;23.344;2022-09-09T14:09:25;95309.84;;;30.49;36.67
64668;BME280;51077;42.716;23.344;2022-09-09T14:11:51;95303.38;;;30.47;36.59
64668;BME280;51077;42.716;23.344;2022-09-09T14:14:16;95298.19;;;30.41;36.76
64668;BME280;51077;42.716;23.344;2022-09-09T14:16:42;95292.47;;;30.39;36.59
64668;BME280;51077;42.716;23.344;2022-09-09T14:19:08;95294.25;;;30.31;37.08
64668;BME280;51077;42.716;23.344;2022-09-09T14:21:34;95293.09;;;30.20;37.07
64668;BME280;51077;42.716;23.344;2022-09-09T14:24:00;95301.31;;;30.14;37.59
64668;BME280;51077;42.716;23.344;2022-09-09T14:26:25;95289.47;;;30.01;37.64
64668;BME280;51077;42.716;23.344;2022-09-09T14:28:51;95297.88;;;29.99;37.89
64668;BME280;51077;42.716;23.344;2022-09-09T14:31:17;95293.75;;;30.02;37.71
64668;BME280;51077;42.716;23.344;2022-09-09T14:33:43;95289.31;;;29.97;37.83
64668;BME280;51077;42.716;23.344;2022-09-09T14:36:09;95296.81;;;29.91;37.76
64668;BME280;51077;42.716;23.344;2022-09-09T14:38:37;95288.38;;;29.75;38.13
64668;BME280;51077;42.716;23.344;2022-09-09T14:41:09;95291.94;;;29.60;38.45
64668;BME280;51077;42.716;23.344;2022-09-09T14:43:37;95288.84;;;29.53;38.23
64668;BME280;51077;42.716;23.344;2022-09-09T14:46:07;95287.75;;;29.29;38.26
64668;BME280;51077;42.716;23.344;2022-09-09T14:48:34;95291.78;;;29.08;38.81
64668;BME280;51077;42.716;23.344;2022-09-09T14:53:32;95286.59;;;28.73;39.55
64668;BME280;51077;42.716;23.344;2022-09-09T14:56:12;95292.78;;;28.53;39.92
64668;BME280;51077;42.716;23.344;2022-09-09T14:58:38;95289.84;;;28.51;39.83
64668;BME280;51077;42.716;23.344;2022-09-09T15:01:08;95285.56;;;28.50;39.95
64668;BME280;51077;42.716;23.344;2022-09-09T15:03:36;95292.38;;;28.45;39.88
64668;BME280;51077;42.716;23.344;2022-09-09T15:06:06;95295.13;;;28.43;39.99